createdAt,value
2018-07-19T00:00:51.075Z,4.30
2018-07-19T00:03:23.510Z,3.93
2018-07-19T00:05:55.948Z,3.77
2018-07-19T00:08:28.414Z,4.23
2018-07-19T00:11:00.900Z,4.23
2018-07-19T00:13:33.349Z,3.77
2018-07-19T00:16:05.773Z,4.30
2018-07-19T00:18:38.248Z,3.77
2018-07-19T00:21:10.694Z,4.07
2018-07-19T00:23:43.144Z,4.20
2018-07-19T00:26:15.611Z,4.10
2018-07-19T00:28:48.616Z,4.27
2018-07-19T00:31:21.065Z,4.10
2018-07-19T00:33:53.520Z,4.00
2018-07-19T00:36:25.951Z,4.13
2018-07-19T00:38:58.397Z,4.17
2018-07-19T00:41:31.145Z,4.13
2018-07-19T00:44:03.639Z,4.07
2018-07-19T00:46:36.074Z,3.93
2018-07-19T00:49:08.533Z,4.17
2018-07-19T00:51:40.983Z,4.30
2018-07-19T00:54:13.443Z,4.40
2018-07-19T00:56:45.861Z,4.60
2018-07-19T00:59:18.317Z,4.33
2018-07-19T01:01:50.761Z,4.30
2018-07-19T01:04:23.260Z,4.30
2018-07-19T01:06:55.682Z,4.17
2018-07-19T01:09:28.401Z,4.30
2018-07-19T01:12:00.849Z,3.83
2018-07-19T01:14:33.288Z,4.27
2018-07-19T01:17:05.991Z,4.40
2018-07-19T01:19:38.436Z,4.30
2018-07-19T01:22:10.995Z,4.20
2018-07-19T01:24:43.733Z,4.63
2018-07-19T01:27:16.208Z,4.73
2018-07-19T01:29:48.661Z,4.10
2018-07-19T01:32:21.078Z,4.37
2018-07-19T01:34:53.514Z,4.30
2018-07-19T01:37:25.929Z,4.93
2018-07-19T01:39:58.729Z,4.53
2018-07-19T01:42:34.883Z,4.23
2018-07-19T01:45:07.549Z,4.40
2018-07-19T01:47:40.275Z,4.70
2018-07-19T01:50:12.760Z,4.90
2018-07-19T01:52:45.190Z,4.53
2018-07-19T01:55:17.649Z,4.90
2018-07-19T01:57:50.393Z,4.70
2018-07-19T02:00:22.857Z,4.67
2018-07-19T02:02:55.652Z,4.70
2018-07-19T02:05:28.117Z,5.07
2018-07-19T02:08:00.813Z,4.87
2018-07-19T02:10:34.236Z,4.60
2018-07-19T02:13:06.659Z,4.63
2018-07-19T02:15:39.090Z,4.57
2018-07-19T02:18:11.607Z,4.97
2018-07-19T02:20:44.061Z,4.60
2018-07-19T02:23:16.557Z,4.30
2018-07-19T02:25:49.066Z,5.20
2018-07-19T02:28:21.509Z,4.87
2018-07-19T02:30:53.968Z,5.10
2018-07-19T02:33:26.422Z,4.90
2018-07-19T02:35:58.886Z,4.83
2018-07-19T02:38:31.330Z,4.43
2018-07-19T02:41:03.801Z,4.70
2018-07-19T02:43:36.292Z,4.30
2018-07-19T02:46:08.741Z,4.70
2018-07-19T02:48:41.168Z,4.27
2018-07-19T02:51:13.914Z,4.67
2018-07-19T02:53:46.315Z,4.47
2018-07-19T02:56:18.761Z,4.70
2018-07-19T02:58:51.169Z,4.70
2018-07-19T03:01:23.889Z,4.40
2018-07-19T03:03:56.169Z,4.57
2018-07-19T03:06:28.848Z,4.73
2018-07-19T03:09:01.538Z,4.57
2018-07-19T03:11:34.533Z,4.53
2018-07-19T03:14:06.952Z,4.50
2018-07-19T03:16:39.360Z,4.90
2018-07-19T03:19:11.774Z,4.53
2018-07-19T03:21:44.200Z,4.30
2018-07-19T03:24:16.669Z,4.87
2018-07-19T03:26:49.111Z,4.60
2018-07-19T03:29:21.518Z,4.00
2018-07-19T03:31:54.283Z,4.73
2018-07-19T03:34:26.687Z,4.07
2018-07-19T03:36:59.453Z,4.50
2018-07-19T03:39:31.889Z,4.20
2018-07-19T03:42:04.313Z,5.07
2018-07-19T03:44:36.720Z,5.30
2018-07-19T03:47:09.397Z,4.70
2018-07-19T03:49:41.796Z,4.77
2018-07-19T03:52:14.203Z,4.67
2018-07-19T03:54:46.650Z,4.97
2018-07-19T03:57:19.362Z,4.97
2018-07-19T03:59:51.997Z,5.00
2018-07-19T04:02:24.416Z,4.93
2018-07-19T04:04:56.820Z,4.97
2018-07-19T04:07:29.241Z,5.83
2018-07-19T04:10:01.889Z,5.80
2018-07-19T04:12:34.320Z,5.37
2018-07-19T04:15:06.986Z,5.80
2018-07-19T04:17:39.664Z,5.50
2018-07-19T04:20:12.341Z,5.47
2018-07-19T04:22:44.768Z,5.30
2018-07-19T04:25:17.235Z,5.20
2018-07-19T04:27:49.896Z,5.30
2018-07-19T04:30:22.299Z,5.40
2018-07-19T04:32:55.021Z,5.27
2018-07-19T04:35:27.788Z,4.90
2018-07-19T04:38:00.457Z,4.90
2018-07-19T04:40:32.872Z,5.00
2018-07-19T04:43:05.305Z,5.00
2018-07-19T04:45:37.784Z,4.70
2018-07-19T04:48:10.550Z,4.87
2018-07-19T04:50:43.260Z,4.43
2018-07-19T04:53:15.653Z,4.10
2018-07-19T04:55:48.399Z,4.60
2018-07-19T04:58:20.809Z,4.17
2018-07-19T05:00:53.553Z,3.50
2018-07-19T05:03:25.977Z,4.17
2018-07-19T05:05:58.443Z,3.60
2018-07-19T05:08:31.165Z,3.83
2018-07-19T05:11:03.808Z,3.70
2018-07-19T05:13:36.256Z,4.00
2018-07-19T05:16:08.678Z,3.75
2018-07-19T05:18:41.361Z,3.52
2018-07-19T05:21:13.776Z,4.17
2018-07-19T05:23:46.205Z,4.22
2018-07-19T05:26:19.654Z,4.33
2018-07-19T05:28:52.093Z,4.22
2018-07-19T05:31:24.493Z,3.75
2018-07-19T05:33:57.229Z,3.90
2018-07-19T05:36:29.905Z,3.25
2018-07-19T05:39:02.647Z,3.40
2018-07-19T05:41:35.078Z,3.60
2018-07-19T05:44:07.485Z,3.20
2018-07-19T05:46:40.154Z,3.95
2018-07-19T05:49:12.582Z,3.70
2018-07-19T05:51:44.997Z,3.20
2018-07-19T05:54:17.672Z,3.30
2018-07-19T05:56:50.658Z,2.70
2018-07-19T05:59:23.101Z,3.17
2018-07-19T06:01:55.585Z,3.00
2018-07-19T06:04:28.053Z,3.37
2018-07-19T06:07:00.509Z,3.20
2018-07-19T06:09:33.041Z,2.83
2018-07-19T06:12:05.490Z,3.10
2018-07-19T06:14:37.935Z,3.10
2018-07-19T06:17:10.448Z,2.80
2018-07-19T06:19:42.857Z,2.80
2018-07-19T06:22:15.330Z,3.02
2018-07-19T06:24:48.045Z,3.10
2018-07-19T06:27:21.147Z,3.75
2018-07-19T06:29:53.856Z,2.98
2018-07-19T06:32:26.301Z,2.60
2018-07-19T06:34:58.741Z,3.30
2018-07-19T06:37:31.198Z,3.10
2018-07-19T06:40:04.355Z,3.10
2018-07-19T06:42:36.795Z,3.33
2018-07-19T06:45:09.466Z,3.50
2018-07-19T06:47:42.185Z,3.50
2018-07-19T06:50:14.615Z,3.00
2018-07-19T06:52:48.850Z,3.00
2018-07-19T06:55:21.396Z,3.70
2018-07-19T06:57:53.948Z,3.83
2018-07-19T07:00:26.361Z,3.40
2018-07-19T07:02:58.817Z,3.60
2018-07-19T07:05:31.504Z,3.58
2018-07-19T07:08:03.949Z,3.42
2018-07-19T07:10:36.347Z,3.67
2018-07-19T07:13:08.785Z,4.42
2018-07-19T07:15:41.453Z,3.67
2018-07-19T07:18:14.178Z,3.62
2018-07-19T07:20:46.630Z,3.85
2018-07-19T07:23:19.102Z,3.90
2018-07-19T07:25:51.605Z,3.62
2018-07-19T07:28:24.080Z,3.30
2018-07-19T07:30:56.766Z,3.52
2018-07-19T07:33:29.238Z,3.90
2018-07-19T07:36:01.665Z,3.70
2018-07-19T07:38:34.069Z,3.50
2018-07-19T07:41:06.492Z,3.37
2018-07-19T07:43:38.920Z,3.30
2018-07-19T07:46:11.336Z,3.62
2018-07-19T07:48:43.762Z,3.33
2018-07-19T07:51:16.506Z,3.10
2018-07-19T07:53:48.909Z,3.17
2018-07-19T07:56:21.305Z,3.33
2018-07-19T07:58:53.804Z,3.42
2018-07-19T08:01:26.291Z,3.83
2018-07-19T08:03:58.737Z,3.33
2018-07-19T08:06:31.207Z,4.05
2018-07-19T08:09:05.416Z,3.70
2018-07-19T08:11:37.873Z,3.08
2018-07-19T08:14:10.327Z,3.00
2018-07-19T08:16:42.756Z,3.30
2018-07-19T08:19:15.216Z,2.83
2018-07-19T08:21:47.929Z,2.77
2018-07-19T08:24:20.577Z,2.75
2018-07-19T08:26:53.013Z,2.90
2018-07-19T08:29:25.736Z,2.92
2018-07-19T08:31:59.252Z,2.40
2018-07-19T08:34:31.697Z,2.55
2018-07-19T08:37:04.132Z,2.95
2018-07-19T08:39:36.561Z,2.60
2018-07-19T08:42:09.023Z,2.80
2018-07-19T08:44:41.519Z,2.75
2018-07-19T08:47:13.980Z,2.58
2018-07-19T08:49:46.428Z,2.58
2018-07-19T08:52:18.834Z,2.58
2018-07-19T08:54:51.285Z,2.35
2018-07-19T08:57:23.708Z,2.45
2018-07-19T08:59:56.150Z,2.58
2018-07-19T09:02:28.673Z,2.70
2018-07-19T09:05:01.104Z,2.37
2018-07-19T09:07:33.522Z,2.47
2018-07-19T09:10:05.960Z,2.60
2018-07-19T09:12:38.430Z,2.95
2018-07-19T09:15:11.101Z,2.72
2018-07-19T09:17:43.588Z,2.52
2018-07-19T09:20:16.005Z,2.52
2018-07-19T09:22:48.395Z,2.45
2018-07-19T09:25:21.105Z,2.15
2018-07-19T09:27:53.545Z,2.98
2018-07-19T09:30:25.961Z,2.80
2018-07-19T09:32:58.479Z,2.77
2018-07-19T09:35:30.899Z,2.52
2018-07-19T09:38:03.118Z,2.45
2018-07-19T09:40:35.828Z,2.47
2018-07-19T09:43:08.223Z,3.30
2018-07-19T09:45:40.634Z,3.00
2018-07-19T09:48:13.040Z,2.50
2018-07-19T09:50:45.454Z,2.80
2018-07-19T09:53:18.522Z,2.80
2018-07-19T09:55:50.935Z,2.30
2018-07-19T09:58:23.673Z,2.30
2018-07-19T10:00:56.251Z,2.80
2018-07-19T10:03:29.028Z,2.35
2018-07-19T10:06:01.799Z,2.30
2018-07-19T10:08:34.212Z,2.22
2018-07-19T10:11:06.657Z,2.60
2018-07-19T10:13:39.141Z,2.67
2018-07-19T10:16:11.545Z,2.00
2018-07-19T10:18:44.022Z,2.27
2018-07-19T10:21:16.756Z,2.58
2018-07-19T10:23:49.221Z,2.40
2018-07-19T10:26:21.986Z,2.70
2018-07-19T10:28:54.674Z,2.50
2018-07-19T10:31:27.113Z,2.52
2018-07-19T10:33:59.608Z,2.87
2018-07-19T10:36:32.026Z,3.30
2018-07-19T10:39:06.420Z,3.08
2018-07-19T10:41:38.865Z,2.35
2018-07-19T10:44:11.349Z,2.27
2018-07-19T10:46:43.789Z,2.58
2018-07-19T10:49:16.268Z,2.80
2018-07-19T10:51:49.050Z,2.77
2018-07-19T10:54:21.685Z,3.00
2018-07-19T10:56:54.608Z,3.33
2018-07-19T10:59:27.077Z,3.10
2018-07-19T11:01:59.465Z,3.12
2018-07-19T11:04:31.889Z,2.90
2018-07-19T11:07:04.343Z,3.50
2018-07-19T11:09:36.785Z,2.80
2018-07-19T11:12:09.121Z,2.80
2018-07-19T11:14:41.537Z,2.65
2018-07-19T11:17:15.870Z,2.95
2018-07-19T11:19:48.284Z,3.10
2018-07-19T11:22:20.664Z,3.02
2018-07-19T11:24:53.077Z,3.05
2018-07-19T11:27:25.472Z,2.50
2018-07-19T11:29:57.885Z,2.67
2018-07-19T11:32:30.277Z,2.98
2018-07-19T11:35:02.998Z,3.10
2018-07-19T11:37:35.422Z,3.00
2018-07-19T11:40:08.068Z,3.27
2018-07-19T11:42:40.454Z,3.50
2018-07-19T11:45:12.861Z,3.47
2018-07-19T11:47:45.246Z,3.00
2018-07-19T11:50:17.641Z,3.50
2018-07-19T11:52:50.021Z,3.62
2018-07-19T11:55:22.781Z,3.42
2018-07-19T11:57:55.221Z,3.22
2018-07-19T12:00:27.649Z,3.20
2018-07-19T12:03:00.094Z,3.17
2018-07-19T12:05:32.782Z,3.35
2018-07-19T12:08:05.212Z,3.27
2018-07-19T12:10:37.935Z,2.95
2018-07-19T12:13:10.221Z,3.20
2018-07-19T12:15:42.695Z,3.17
2018-07-19T12:18:15.101Z,3.02
2018-07-19T12:20:47.547Z,3.22
2018-07-19T12:23:20.248Z,3.02
2018-07-19T12:25:53.001Z,3.20
2018-07-19T12:28:25.433Z,3.62
2018-07-19T12:30:58.256Z,3.47
2018-07-19T12:33:30.717Z,3.33
2018-07-19T12:36:03.285Z,3.22
2018-07-19T12:38:35.741Z,3.08
2018-07-19T12:41:08.167Z,3.20
2018-07-19T12:43:40.913Z,3.20
2018-07-19T12:46:13.353Z,2.92
2018-07-19T12:48:45.774Z,3.75
2018-07-19T12:51:18.209Z,3.27
2018-07-19T12:53:50.618Z,3.37
2018-07-19T12:56:23.076Z,3.35
2018-07-19T12:58:55.500Z,3.10
2018-07-19T13:01:27.942Z,2.75
2018-07-19T13:04:00.376Z,3.10
2018-07-19T13:06:32.817Z,3.20
2018-07-19T13:09:07.082Z,3.00
2018-07-19T13:11:39.761Z,3.02
2018-07-19T13:14:12.185Z,3.40
2018-07-19T13:16:44.642Z,3.45
2018-07-19T13:19:17.068Z,3.25
2018-07-19T13:21:49.810Z,3.20
2018-07-19T13:24:22.526Z,3.27
2018-07-19T13:26:55.194Z,2.77
2018-07-19T13:29:27.651Z,3.20
2018-07-19T13:32:00.102Z,3.72
2018-07-19T13:34:32.540Z,3.40
2018-07-19T13:37:04.961Z,3.27
2018-07-19T13:39:37.741Z,3.33
2018-07-19T13:42:10.173Z,3.37
2018-07-19T13:44:42.601Z,3.22
2018-07-19T13:47:15.637Z,3.70
2018-07-19T13:49:48.059Z,3.10
2018-07-19T13:52:32.175Z,3.42
2018-07-19T13:55:04.919Z,3.50
2018-07-19T13:57:37.458Z,3.10
2018-07-19T14:00:09.885Z,3.55
2018-07-19T14:02:42.355Z,3.05
2018-07-19T14:05:14.774Z,3.65
2018-07-19T14:07:47.258Z,3.27
2018-07-19T14:10:19.670Z,3.62
2018-07-19T14:12:52.499Z,3.25
2018-07-19T14:15:24.925Z,3.05
2018-07-19T14:17:57.625Z,3.30
2018-07-19T14:20:30.043Z,3.22
2018-07-19T14:23:02.528Z,3.67
2018-07-19T14:25:34.998Z,3.27
2018-07-19T14:28:07.424Z,3.30
2018-07-19T14:30:40.177Z,3.12
2018-07-19T14:33:12.620Z,3.35
2018-07-19T14:35:45.034Z,3.60
2018-07-19T14:38:17.503Z,3.37
2018-07-19T14:40:50.165Z,3.08
2018-07-19T14:43:22.849Z,3.00
2018-07-19T14:45:55.274Z,3.25
2018-07-19T14:48:27.935Z,3.00
2018-07-19T14:51:00.578Z,3.25
2018-07-19T14:53:33.273Z,3.20
2018-07-19T14:56:05.717Z,3.40
2018-07-19T14:58:38.422Z,3.30
2018-07-19T15:01:10.841Z,3.25
2018-07-19T15:03:43.240Z,3.05
2018-07-19T15:06:15.661Z,3.15
2018-07-19T15:08:48.081Z,3.35
2018-07-19T15:11:20.463Z,3.37
2018-07-19T15:13:53.114Z,3.27
2018-07-19T15:16:25.508Z,3.08
2018-07-19T15:18:57.945Z,3.22
2018-07-19T15:21:30.873Z,3.12
2018-07-19T15:24:03.290Z,3.80
2018-07-19T15:26:35.694Z,3.65
2018-07-19T15:29:08.335Z,3.15
2018-07-19T15:31:40.713Z,3.45
2018-07-19T15:34:13.297Z,3.30
2018-07-19T15:36:45.696Z,3.05
2018-07-19T15:39:18.093Z,3.25
2018-07-19T15:41:50.485Z,3.33
2018-07-19T15:44:23.216Z,3.40
2018-07-19T15:46:55.928Z,2.90
2018-07-19T15:49:28.385Z,3.20
2018-07-19T15:52:01.474Z,3.20
2018-07-19T15:54:34.166Z,3.20
2018-07-19T15:57:06.946Z,3.37
2018-07-19T15:59:39.700Z,3.40
2018-07-19T16:02:12.545Z,3.12
2018-07-19T16:04:45.265Z,3.20
2018-07-19T16:07:18.012Z,3.00
2018-07-19T16:09:50.737Z,3.52
2018-07-19T16:12:23.485Z,3.45
2018-07-19T16:14:56.257Z,3.67
2018-07-19T16:17:29.060Z,3.10
2018-07-19T16:20:01.809Z,3.33
2018-07-19T16:22:34.591Z,3.52
2018-07-19T16:25:07.320Z,3.27
2018-07-19T16:27:40.102Z,3.55
2018-07-19T16:30:12.836Z,3.30
2018-07-19T16:32:45.636Z,3.80
2018-07-19T16:35:18.449Z,3.67
2018-07-19T16:37:51.238Z,3.30
2018-07-19T16:40:23.994Z,3.52
2018-07-19T16:42:56.844Z,3.30
2018-07-19T16:45:29.570Z,3.27
2018-07-19T16:48:02.376Z,3.35
2018-07-19T16:50:35.632Z,2.90
2018-07-19T16:53:09.093Z,3.42
2018-07-19T16:55:41.940Z,3.12
2018-07-19T16:58:14.729Z,3.60
2018-07-19T17:00:47.454Z,3.37
2018-07-19T17:03:20.259Z,3.33
2018-07-19T17:05:53.023Z,3.37
2018-07-19T17:08:25.801Z,3.08
2018-07-19T17:10:58.845Z,3.40
2018-07-19T17:13:31.555Z,3.20
2018-07-19T17:16:03.949Z,3.42
2018-07-19T17:18:36.361Z,2.87
2018-07-19T17:21:08.779Z,3.50
2018-07-19T17:23:41.553Z,3.42
2018-07-19T17:26:14.006Z,3.27
2018-07-19T17:28:46.475Z,3.47
2018-07-19T17:31:18.860Z,3.42
2018-07-19T17:33:51.853Z,3.35
2018-07-19T17:36:24.244Z,3.62
2018-07-19T17:38:56.690Z,3.33
2018-07-19T17:41:29.481Z,3.42
2018-07-19T17:44:01.895Z,3.50
2018-07-19T17:46:34.297Z,3.27
2018-07-19T17:49:06.715Z,3.10
2018-07-19T17:51:39.093Z,3.40
2018-07-19T17:54:11.515Z,3.20
2018-07-19T17:56:43.967Z,3.17
2018-07-19T17:59:16.393Z,3.10
2018-07-19T18:01:48.804Z,3.60
2018-07-19T18:04:21.235Z,3.92
2018-07-19T18:06:53.886Z,3.60
2018-07-19T18:09:26.313Z,3.58
2018-07-19T18:11:59.556Z,3.20
2018-07-19T18:14:31.973Z,3.35
2018-07-19T18:17:04.711Z,3.60
2018-07-19T18:19:37.143Z,3.33
2018-07-19T18:22:09.550Z,3.45
2018-07-19T18:24:41.957Z,3.35
2018-07-19T18:27:14.630Z,3.45
2018-07-19T18:29:47.279Z,3.37
2018-07-19T18:32:19.665Z,3.27
2018-07-19T18:34:52.090Z,3.67
2018-07-19T18:37:24.728Z,3.45
2018-07-19T18:39:57.137Z,3.62
2018-07-19T18:42:29.537Z,3.52
2018-07-19T18:45:01.945Z,3.60
2018-07-19T18:47:34.381Z,3.70
2018-07-19T18:50:06.787Z,3.60
2018-07-19T18:52:39.190Z,3.25
2018-07-19T18:55:11.896Z,3.60
2018-07-19T18:57:44.354Z,3.55
2018-07-19T19:00:16.833Z,3.60
2018-07-19T19:02:49.310Z,3.62
2018-07-19T19:05:22.024Z,3.70
2018-07-19T19:07:54.449Z,3.20
2018-07-19T19:10:27.126Z,3.50
2018-07-19T19:12:59.577Z,3.37
2018-07-19T19:15:32.350Z,3.12
2018-07-19T19:18:04.846Z,3.37
2018-07-19T19:20:37.269Z,3.25
2018-07-19T19:23:09.701Z,3.20
2018-07-19T19:25:42.117Z,3.00
2018-07-19T19:28:14.527Z,3.45
2018-07-19T19:30:48.429Z,3.52
2018-07-19T19:33:21.173Z,3.60
2018-07-19T19:35:53.865Z,3.52
2018-07-19T19:38:26.285Z,3.10
2018-07-19T19:40:58.851Z,3.40
2018-07-19T19:43:31.317Z,3.47
2018-07-19T19:46:03.822Z,4.20
2018-07-19T19:48:36.344Z,4.30
2018-07-19T19:51:09.453Z,4.53
2018-07-19T19:53:41.869Z,4.58
2018-07-19T19:56:14.333Z,4.40
2018-07-19T19:58:46.860Z,4.55
2018-07-19T20:01:19.221Z,4.12
2018-07-19T20:03:51.650Z,4.30
2018-07-19T20:06:24.374Z,4.87
2018-07-19T20:08:56.804Z,4.53
2018-07-19T20:11:29.384Z,4.55
2018-07-19T20:14:01.798Z,4.30
2018-07-19T20:16:34.953Z,5.28
2018-07-19T20:19:07.240Z,5.65
2018-07-19T20:21:39.725Z,4.90
2018-07-19T20:24:12.169Z,4.50
2018-07-19T20:26:44.694Z,4.97
2018-07-19T20:29:17.173Z,4.50
2018-07-19T20:31:49.630Z,4.70
2018-07-19T20:34:22.060Z,5.50
2018-07-19T20:36:54.799Z,5.40
2018-07-19T20:39:27.222Z,5.33
2018-07-19T20:41:59.937Z,5.00
2018-07-19T20:44:32.409Z,5.90
2018-07-19T20:47:04.853Z,5.87
2018-07-19T20:49:37.321Z,5.70
2018-07-19T20:52:09.843Z,5.65
2018-07-19T20:54:42.597Z,5.62
2018-07-19T20:57:15.073Z,5.80
2018-07-19T20:59:48.112Z,5.35
2018-07-19T21:02:20.650Z,5.58
2018-07-19T21:04:53.057Z,5.28
2018-07-19T21:07:25.467Z,4.97
2018-07-19T21:09:57.909Z,5.08
2018-07-19T21:12:30.278Z,5.22
2018-07-19T21:15:02.712Z,5.43
2018-07-19T21:17:35.118Z,4.87
2018-07-19T21:20:07.783Z,5.03
2018-07-19T21:22:40.218Z,5.40
2018-07-19T21:25:12.930Z,5.28
2018-07-19T21:27:45.360Z,5.40
2018-07-19T21:30:17.778Z,5.62
2018-07-19T21:32:50.197Z,5.28
2018-07-19T21:35:22.637Z,5.15
2018-07-19T21:37:55.059Z,4.22
2018-07-19T21:40:27.833Z,4.53
2018-07-19T21:43:00.261Z,4.92
2018-07-19T21:45:32.686Z,5.10
2018-07-19T21:48:05.105Z,4.55
2018-07-19T21:50:37.532Z,5.00
2018-07-19T21:53:10.146Z,4.70
2018-07-19T21:55:42.905Z,4.75
2018-07-19T21:58:15.165Z,4.83
2018-07-19T22:00:47.581Z,5.00
2018-07-19T22:03:19.993Z,4.60
2018-07-19T22:05:52.422Z,5.22
2018-07-19T22:08:24.826Z,5.03
2018-07-19T22:10:57.266Z,5.40
2018-07-19T22:13:29.673Z,5.13
2018-07-19T22:16:02.150Z,5.20
2018-07-19T22:18:34.550Z,5.10
2018-07-19T22:21:07.009Z,5.27
2018-07-19T22:23:39.428Z,5.27
2018-07-19T22:26:12.002Z,5.50
2018-07-19T22:28:44.381Z,5.17
2018-07-19T22:31:17.025Z,5.10
2018-07-19T22:33:49.425Z,4.62
2018-07-19T22:36:22.167Z,5.07
2018-07-19T22:38:54.579Z,5.10
2018-07-19T22:41:26.973Z,4.65
2018-07-19T22:43:59.435Z,4.72
2018-07-19T22:46:31.881Z,4.92
2018-07-19T22:49:04.318Z,4.65
2018-07-19T22:51:36.749Z,4.83
2018-07-19T22:54:09.210Z,4.50
2018-07-19T22:56:41.639Z,4.07
2018-07-19T22:59:14.058Z,4.27
2018-07-19T23:01:46.497Z,3.90
2018-07-19T23:04:18.887Z,4.50
2018-07-19T23:06:51.305Z,4.07
2018-07-19T23:09:23.953Z,4.55
2018-07-19T23:11:56.401Z,4.00
2018-07-19T23:14:36.808Z,3.80
2018-07-19T23:17:09.273Z,3.80
2018-07-19T23:19:41.726Z,4.27
2018-07-19T23:22:14.387Z,4.07
2018-07-19T23:24:46.793Z,4.30
2018-07-19T23:27:19.265Z,3.80
2018-07-19T23:29:51.761Z,4.10
2018-07-19T23:32:24.496Z,3.93
2018-07-19T23:34:56.905Z,4.20
2018-07-19T23:37:29.353Z,4.57
2018-07-19T23:40:01.761Z,4.10
2018-07-19T23:42:34.196Z,4.23
2018-07-19T23:45:06.416Z,4.03
2018-07-19T23:47:38.904Z,3.50
2018-07-19T23:50:11.296Z,4.00
2018-07-19T23:52:43.998Z,4.10
2018-07-19T23:55:16.651Z,3.97
2018-07-19T23:57:49.077Z,4.20
